Historyczne dane pomiarowe

Dodano dane terminowe – wersja testowa.

Dane z okresu 1951-2019

Wersja bazy: 1.34 [2019-03-16, lista zmian], aktualizacja planowana na 2019-04-15

Dane meteo z obszaru Polski uzyskane na podstawie danych udostępnionych przez Instytut Meteorologii i Gospodarki Wodnej – Państwowy Instytut Badawczy.

 

Wybierz Datę:    

       

TemperaturaWilgotnośćWiatrCiśnienieOpadyŚniegCzas trwania zjawisk
 Stacja t tx tn tng RH VA  wxwx mslp ppp RRR   cm mm wxwxwxwxwxwxwx
1999-08-14 15.2 20.3 10.0- 78.8- 0.3 2.3---- 0.0------------
1999-08-13 14.4 18.8 10.1- 85.5- 1.0 1.7---- 0.0------------
1999-08-12 14.7 17.5 11.7- 93.0- 5.7 2.3---- 0.0------------
1999-08-11 19.4 23.8 16.1- 88.5- 2.0 2.3---- 6.6------------
1999-08-10 20.4 28.5 15.3- 93.3- 2.3 0.3---- 12.0------------
1999-08-09 23.3 28.8 18.4- 89.8- 0.3 1.0---- 0.1------------
1999-08-08 21.3 27.2 15.8- 89.3- 0.3 1.3---- 0.0------------
1999-08-07 22.4 28.5 14.6- 88.0- 0.3 0.3---- 0.0------------
1999-08-06 21.0 27.0 14.6- 87.5- 0.7 1.7---- 0.2------------
1999-08-05 19.0 26.0 11.5- 87.5- 0.0 1.0---- 7.0------------
1999-08-04 17.7 24.0 10.1- 88.8- 0.0 1.7---- 0.0------------
1999-08-03 16.1 22.3 10.6- 90.5- 1.3 1.3---- 0.0------------
1999-08-02 15.7 21.5 10.9- 91.0- 0.3 1.0---- 0.0------------
1999-08-01 17.6 24.0 12.1- 86.5- 0.7 2.0---- 0.0------------
1999-07-31 18.6 25.3 11.7- 84.8- 0.3 2.7---- 0.0------------
1999-07-30 18.0 24.1 11.1- 87.0- 0.3 1.3---- 0.0------------
1999-07-29 17.9 23.5 12.8- 80.0- 0.0 2.3---- 0.0------------
1999-07-28 18.9 24.1 14.5- 84.8- 0.3 0.7---- 0.0------------
1999-07-27 18.2 22.3 14.6- 95.5- 5.3 1.0---- 0.0------------
1999-07-26 20.0 25.8 13.5- 88.0- 0.0 2.0---- 0.0------------
1999-07-25 19.0 24.5 10.7- 82.3- 0.0 0.7---- 0.0------------
1999-07-24 16.7 21.4 10.7- 91.8- 5.0 2.0---- 0.0------------
1999-07-23 14.0 19.5 11.2- 96.0- 7.3 1.7---- 4.1------------
1999-07-22 19.6 23.2 16.1- 81.8- 1.0 2.0---- 19.1------------
1999-07-21 22.9 28.7 17.2- 80.5- 0.0 3.0---- 0.0------------
1999-07-20 24.1 29.1 17.9- 70.0- 0.0 0.0---- 0.0------------
1999-07-19 22.3 26.8 14.1- 73.3- 0.0 0.0---- 0.0------------
1999-07-18 19.1 27.0 11.1- 83.3- 0.0 1.0---- 0.0------------
1999-07-17 17.3 22.3 11.6- 80.3- 0.7 0.7---- 0.0------------
1999-07-16 16.6 21.1 12.1- 77.5- 0.0 2.0---- 0.0------------
1999-07-15 16.3 20.8 14.1- 89.8- 2.7 2.3---- 0.0------------
1999-07-14 20.5 27.4 15.1- 85.8- 1.7 2.7---- 2.1------------
1999-07-13 20.0 25.4 14.6- 87.5- 2.7 1.0---- 5.7------------
1999-07-12 20.4 26.5 13.8- 90.3- 0.0 2.0---- 1.8------------
1999-07-11 18.0 20.5 15.6- 98.3- 4.0 2.7---- 6.3------------
1999-07-10 18.6 21.3 15.8- 92.8- 4.0 4.7---- 0.0------------
1999-07-09 17.5 19.7 14.1- 99.0- 7.7 0.7---- 1.3------------
1999-07-08 16.2 21.3 10.3- 98.0- 6.0 0.3---- 4.6------------
1999-07-07 21.2 26.7 18.2- 90.0- 1.3 2.7---- 48.1------------
1999-07-06 26.3 32.4 18.9- 74.8- 0.0 3.7---- 0.0------------
1999-07-05 24.8 31.6 16.9- 71.8- 0.0 2.7---- 0.0------------
1999-07-04 22.4 29.5 14.1- 83.5- 0.0 1.7---- 0.0------------
1999-07-03 20.8 25.0 14.8- 82.5- 0.7 1.7---- 0.0------------
1999-07-02 19.6 24.4 14.3- 87.8- 0.3 2.0---- 0.0------------
1999-07-01 18.9 24.6 13.6- 80.8- 0.7 1.3---- 0.0------------
1999-06-30 18.7 24.7 12.3- 83.5- 0.7 1.3---- 0.0------------
1999-06-29 18.9 23.3 14.6- 81.5- 0.0 1.3---- 0.0------------
1999-06-28 19.0 25.5 12.3- 89.3- 4.0 1.0---- 7.6------------
1999-06-27 19.7 26.0 12.3- 75.0- 0.0 2.0---- 0.0------------
1999-06-26 16.0 24.5 7.6- 80.3- 0.0 3.0---- 0.0------------
1999-06-25 13.3 19.0 6.8- 94.0- 0.0 2.0---- 0.0------------
1999-06-24 11.8 14.0 7.8- 87.8- 1.0 0.7---- 0.0------------
1999-06-23 9.1 11.0 6.4- 98.3- 7.3 1.3---- 4.9------------
1999-06-22 9.4 13.2 7.1-100.0- 8.0 2.7---- 40.0------------
1999-06-21 16.8 23.0 11.8- 86.5- 3.3 1.7---- 66.0------------
1999-06-20 17.1 20.3 14.5- 98.0- 3.3 0.3---- 2.1------------
1999-06-19 14.1 15.8 11.8- 97.0- 8.0 1.7---- 0.1------------
1999-06-18 15.6 18.5 13.1- 98.3- 7.7 1.7---- 16.6------------
1999-06-17 17.8 21.8 14.6- 95.5- 5.3 0.7---- 31.8------------
1999-06-16 16.3 18.5 13.3- 99.5- 8.0 0.3---- 0.4------------
330.8 ms

 

Źródłem pochodzenia danych jest Instytut Meteorologii i Gospodarki Wodnej – Państwowy Instytut Badawczy. Dane Instytutu Meteorologii i Gospodarki Wodnej – Państwowego Instytutu Badawczego zostały przetworzone.

Dane źródłowe można odnaleźć na stronie https://dane.imgw.pl